India Meteorological Department
Airport METARs
Date : 22-08-2019
Sl. # Airport METAR
1 Ahmedabad VAAH 221700Z 20008KT 4000 HZ FEW020 29/26 Q1006 NOSIG=
2 Allahabad VEAB 221630Z 29003KT 5000 BR SCT008 SCT020 FEW030CB BKN090 28/28 Q1003 NOSIG=
3 Amritsar VIAR 221700Z VRB02KT 3000 BR FEW035 31/27 Q1003 NOSIG =
4 Bangalore VOBL 221700Z 29008KT 6000 SCT012 SCT080 21/21 Q1014 NOSIG=
5 Baroda VABO 221600Z 22009KT 6000 FEW020 29/23 Q1005 NOSIG=
6 Bhopal VABP 221700Z 01003KT 3000 HZ FEW018 FEW030CB BKN100 23/23 Q1008 NOSIG=
7 Bhubaneswar VEBS 221700Z 00000KT 4000 HZ FEW020 28/27 Q1002 NOSIG=
8 Chennai VOMM 221730Z 29010G20KT 6000 FEW018 FEW025CB BKN090 28/23 Q1007 TEMPO 5000 -TSRA=
9 Coimbatore VOCB 221700Z 21008KT 5000 BR FEW012 SCT080 24/23 Q1012 NOSIG=
10 Colombo VCBI 221710Z 18006KT 150V210 9999 FEW017 26/24 Q1012 NOSIG=
11 Delhi VIDP 221700Z 18003KT 2500 BR FEW035 SCT100 28/24 Q1004 NOSIG=
12 Gauhati VEGT 221700Z 18003KT 3000 BR FEW018 FEW025CB SCT100 28/26 Q1003 NOSIG=
13 Gaya VEGY 221700Z 09006KT 3000 HZ SCT018 FEW030CB BKN100 30/27 Q1002 NOSIG=
14 Goa VOGO 221700Z 30008KT 6000 FEW012 BKN100 27/24 Q1009 TEMPO 5000 DZ =
15 Hyderabad VOHS 221700Z 33005KT 5000 BR FEW010 SCT015 BKN100 24/24 Q1010 NOSIG=
16 Indore VAID 221700Z 28006KT 5000 HZ SCT020 26/22 Q1008 NOSIG=
17 Jaipur VIJP 221700Z 00000KT 2500 BR FEW030 SCT100 29/25 Q1005 NOSIG=
18 Kochi VOCI 221700Z 34005KT 3000 -RA SCT010 SCT012 FEW025CB OVC080 24/24 Q1012 NOSIG=
19 Kolkata VECC 221700Z 00000KT 2800 BR SCT018 FEW030CB SCT100 25/24 Q1002 NOSIG=
20 Kozhikode VOCL 221700Z 21003KT 2000 DZ SCT003 SCT012 FEW025CB OVC080 25/24 Q1011 NOSIG =
21 Lucknow VILK 221700Z 35004KT 3000 BR SCT020 SCT025 BKN100 27/26 Q1003 NOSIG=
22 Madurai VOMD 221700Z 34006KT 6000 SCT018 BKN100 29/21 Q1010 NOSIG=
23 Mohanbari VEMN 221600Z 08003KT 3500 HZ FEW025 BKN100 30/28 Q1003 NOSIG=
24 Mumbai VABB 221700Z 24006KT 4000 HZ SCT020 SCT025 29/24 Q1008 NOSIG=
25 Nagpur VANP 221700Z 33003KT 2000 -RA FEW020 FEW030CB BKN090 24/23 Q1006 TEMPO 1000 RA=
26 Patna VEPT 221700Z 10006KT 3500 HZ SCT018 BKN100 31/27 Q1001 NOSIG=
27 Raipur VERP 221700Z 23004KT 6000 FEW020 27/24 Q1004 NOSIG=
28 Surat VASU 221730Z 22006KT 5000 HZ FEW012 SCT020 28/25 Q1007 NOSIG=
29 Ranchi VERC 221700Z 18002KT 3000 HZ SCT018 BKN100 27/25 Q1007 NOSIG=
30 Trichy VOTR 221700Z 27009KT 5000 BR SCT016 BKN080 28/24 Q1008 NOSIG=
31 Trivandrum VOTV 221700Z 02004KT 4000 HZ SCT012 FEW025CB BKN080 26/24 Q1011 NOSIG=
32 Varanasi VEBN 221600Z VRB02KT 3000 HZ SCT025 BKN100 28/25 Q1001 NOSIG=
33 Vizag VOVZ 221700Z VRB02KT 5000 BR FEW018 SCT090 28/26 Q1002 NOSIG =
34 Male VRMM 221700Z 27009KT 9999 FEW018TCU BKN260 29/25 Q1012 NOSIG=
35 Gan VRMG 221700Z 29005KT 9999 FEW018TCU BKN120 28/25 Q1013 NOSIG=
36 Kathmandu VNKT 221720Z 11003KT 7000 FEW015 23/22 Q1013 NOSIG=
37 Dhaka VGHS 221700Z 26007KT 3500 HZ SCT012 BKN100 28/25 Q1004 NOSIG=
38 Colombo VCBI 221710Z 18006KT 150V210 9999 FEW017 26/24 Q1012 NOSIG=
39 Karachi OPKC 221656Z 24008KT 6000 SCT030 28/23 Q1005 NOSIG=
40 Lahore OPLA 221655Z NIL=
41 Leh VILH 221630Z 29008KT 6000 FEW070 20/-1 Q1021 NOSIG=
42 Sri Nagar VISR 221700Z 19005KT 6000 FEW025 18/09 Q1014 NOSIG=
43 Jammu VIJU 221700Z VRB02KT 6000 TS SCT020 FEW030CB SCT200 31/26 Q1003 NOSIG=
44 Jodhpur VIJO 221700Z 24007KT 6000 FEW250 30/23 Q1006 NOSIG=
45 Jaisalmer VIJR 221700Z 22008KT 6000 FEW030 32/21 Q1004 NOSIG=
46 Bhuj-Rudra VABJ 221700Z 23006KT 6000 FEW030 SCT250 28/23 Q1006 NOSIG=
47 Gorakhpur VEGK 221700Z VRB02KT 6000 FEW030 BKN250 29/29 Q1002 NOSIG=
48 Agra VIAG 221700Z VRB02KT 5000 BR FEW025 SCT200 26/26 Q1003 NOSIG=
49 Bagdogra VEBD 221630Z VRB01KT 6000 TS SCT020 FEW030CB BKN090 26/24 Q1003 TEMPO TSRA=
50 Gwalior VIGR 221700Z VRB02KT 6000 FEW025 SCT090 26/25 Q1004 NOSIG=
51 Pune VAPO 221700Z 27007KT 6000 FEW030 SCT090 22/20 Q1012 NOSIG=
52 Chandigarh VICG 221700Z VRB02KT 6000 FEW025 SCT250 28/25 Q1004 NOSIG=
53 Jamnagar VAJM 221630Z 25005KT 6000 FEW025 28/24 Q1006 NOSIG=

 

--- End of List ---